createdAt,value
2023-01-31T00:03:30.675Z,2.50
2023-01-31T00:08:35.080Z,2.33
2023-01-31T00:13:38.341Z,2.20
2023-01-31T00:18:41.656Z,2.38
2023-01-31T00:23:47.116Z,2.05
2023-01-31T00:28:50.973Z,2.20
2023-01-31T00:33:55.854Z,1.88
2023-01-31T00:39:01.816Z,1.98
2023-01-31T00:44:06.011Z,1.70
2023-01-31T00:49:08.881Z,1.85
2023-01-31T00:54:13.193Z,1.75
2023-01-31T00:59:16.325Z,1.80
2023-01-31T01:04:19.163Z,1.73
2023-01-31T01:09:23.752Z,1.92
2023-01-31T01:14:26.655Z,1.80
2023-01-31T01:19:29.547Z,1.55
2023-01-31T01:24:34.273Z,1.83
2023-01-31T01:29:37.707Z,1.60
2023-01-31T01:34:40.547Z,1.52
2023-01-31T01:39:44.720Z,1.40
2023-01-31T01:44:52.017Z,1.40
2023-01-31T01:49:57.823Z,1.50
2023-01-31T01:55:08.052Z,1.30
2023-01-31T02:00:15.149Z,1.13
2023-01-31T02:05:22.386Z,1.23
2023-01-31T02:10:32.353Z,1.42
2023-01-31T02:15:36.369Z,1.30
2023-01-31T02:21:11.881Z,1.25
2023-01-31T02:26:45.626Z,1.20
2023-01-31T02:32:32.128Z,1.30
2023-01-31T02:37:44.228Z,1.00
2023-01-31T02:42:55.097Z,1.10
2023-01-31T02:48:09.715Z,1.13
2023-01-31T02:53:20.324Z,1.00
2023-01-31T02:58:26.301Z,1.02
2023-01-31T03:03:31.551Z,1.27
2023-01-31T03:08:36.607Z,1.02
2023-01-31T03:13:54.366Z,1.10
2023-01-31T03:19:05.485Z,1.13
2023-01-31T03:24:10.137Z,1.23
2023-01-31T03:29:16.378Z,1.00
2023-01-31T03:34:20.140Z,1.00
2023-01-31T03:39:36.070Z,1.00
2023-01-31T03:44:45.106Z,1.10
2023-01-31T03:49:50.369Z,1.17
2023-01-31T03:54:59.480Z,1.20
2023-01-31T04:00:04.650Z,1.05
2023-01-31T04:05:10.907Z,0.80
2023-01-31T04:10:18.276Z,1.00
2023-01-31T04:15:22.231Z,1.00
2023-01-31T04:20:25.406Z,0.90
2023-01-31T04:25:31.812Z,0.93
2023-01-31T04:30:35.608Z,0.70
2023-01-31T04:35:41.062Z,0.95
2023-01-31T04:40:45.374Z,0.80
2023-01-31T04:45:48.282Z,1.00
2023-01-31T04:50:51.187Z,1.00
2023-01-31T04:55:56.735Z,1.00
2023-01-31T05:00:59.721Z,0.80
2023-01-31T05:06:02.640Z,1.10
2023-01-31T05:11:07.535Z,0.90
2023-01-31T05:16:12.228Z,1.00
2023-01-31T05:21:15.037Z,1.27
2023-01-31T05:26:19.516Z,1.00
2023-01-31T05:31:22.517Z,0.88
2023-01-31T05:36:25.948Z,0.70
2023-01-31T05:41:30.118Z,0.93
2023-01-31T05:46:32.961Z,0.80
2023-01-31T05:51:35.907Z,0.93
2023-01-31T05:56:40.258Z,1.00
2023-01-31T06:01:43.235Z,1.00
2023-01-31T06:06:46.392Z,0.90
2023-01-31T06:11:50.537Z,0.98
2023-01-31T06:16:53.478Z,1.33
2023-01-31T06:21:56.438Z,0.98
2023-01-31T06:27:00.721Z,1.33
2023-01-31T06:32:03.635Z,1.20
2023-01-31T06:37:09.157Z,1.15
2023-01-31T06:42:13.450Z,1.13
2023-01-31T06:47:16.296Z,1.30
2023-01-31T06:52:19.113Z,1.38
2023-01-31T06:57:23.328Z,1.67
2023-01-31T07:02:26.741Z,1.20
2023-01-31T07:07:30.156Z,1.25
2023-01-31T07:12:34.495Z,1.10
2023-01-31T07:17:37.461Z,1.15
2023-01-31T07:22:40.362Z,1.33
2023-01-31T07:27:44.608Z,1.35
2023-01-31T07:32:47.496Z,1.70
2023-01-31T07:37:53.151Z,1.45
2023-01-31T07:43:00.787Z,1.48
2023-01-31T07:48:03.601Z,1.60
2023-01-31T07:53:06.406Z,1.40
2023-01-31T07:58:10.977Z,1.58
2023-01-31T08:03:35.237Z,1.50
2023-01-31T08:08:38.922Z,1.33
2023-01-31T08:13:43.385Z,1.50
2023-01-31T08:18:46.404Z,1.13
2023-01-31T08:23:50.292Z,1.20
2023-01-31T08:28:54.943Z,2.58
2023-01-31T08:33:57.851Z,2.92
2023-01-31T08:39:01.101Z,2.33
2023-01-31T08:44:06.263Z,2.17
2023-01-31T08:49:11.483Z,1.95
2023-01-31T08:54:15.264Z,1.90
2023-01-31T08:59:19.519Z,3.30
2023-01-31T09:04:22.398Z,2.25
2023-01-31T09:09:25.947Z,2.67
2023-01-31T09:14:31.233Z,3.25
2023-01-31T09:19:34.193Z,3.15
2023-01-31T09:24:37.108Z,3.10
2023-01-31T09:29:41.602Z,3.05
2023-01-31T09:34:44.483Z,3.03
2023-01-31T09:39:47.343Z,3.20
2023-01-31T09:44:59.253Z,3.00
2023-01-31T09:50:08.756Z,2.60
2023-01-31T09:55:18.490Z,2.25
2023-01-31T10:00:29.588Z,2.40
2023-01-31T10:05:40.745Z,2.30
2023-01-31T10:10:48.218Z,1.88
2023-01-31T10:15:55.181Z,2.08
2023-01-31T10:21:05.070Z,2.70
2023-01-31T10:26:15.025Z,2.00
2023-01-31T10:31:30.293Z,2.53
2023-01-31T10:36:37.235Z,1.60
2023-01-31T10:41:48.749Z,1.73
2023-01-31T10:46:56.919Z,1.85
2023-01-31T10:52:12.250Z,1.85
2023-01-31T10:57:15.683Z,2.10
2023-01-31T11:02:23.943Z,1.70
2023-01-31T11:07:29.612Z,1.58
2023-01-31T11:12:43.984Z,1.67
2023-01-31T11:17:49.266Z,1.58
2023-01-31T11:22:53.033Z,1.42
2023-01-31T11:27:59.636Z,1.73
2023-01-31T11:33:04.155Z,1.48
2023-01-31T11:38:23.159Z,1.55
2023-01-31T11:43:27.603Z,1.17
2023-01-31T11:48:40.607Z,1.48
2023-01-31T11:53:50.339Z,1.40
2023-01-31T11:58:56.124Z,1.30
2023-01-31T12:04:04.663Z,1.60
2023-01-31T12:09:20.669Z,1.90
2023-01-31T12:14:25.037Z,1.30
2023-01-31T12:19:41.331Z,1.35
2023-01-31T12:24:55.050Z,1.30
2023-01-31T12:30:14.839Z,1.23
2023-01-31T12:35:57.660Z,1.48
2023-01-31T12:41:09.198Z,0.93
2023-01-31T12:46:23.174Z,1.10
2023-01-31T12:51:42.762Z,1.40
2023-01-31T12:56:58.077Z,1.20
2023-01-31T13:02:24.145Z,1.35
2023-01-31T13:07:31.995Z,1.27
2023-01-31T13:12:36.836Z,0.98
2023-01-31T13:17:41.703Z,1.10
2023-01-31T13:22:49.089Z,1.10
2023-01-31T13:27:59.373Z,0.80
2023-01-31T13:33:08.387Z,1.30
2023-01-31T13:38:18.444Z,1.13
2023-01-31T13:43:21.451Z,1.23
2023-01-31T13:48:29.660Z,1.10
2023-01-31T13:53:41.248Z,1.00
2023-01-31T13:58:45.846Z,0.95
2023-01-31T14:04:22.368Z,1.08
2023-01-31T14:09:27.870Z,1.10
2023-01-31T14:14:41.151Z,1.08
2023-01-31T14:20:03.503Z,0.90
2023-01-31T14:25:14.562Z,1.10
2023-01-31T14:30:29.756Z,1.00
2023-01-31T14:35:46.535Z,1.10
2023-01-31T14:41:01.040Z,1.00
2023-01-31T14:46:19.541Z,0.98
2023-01-31T14:51:29.207Z,0.80
2023-01-31T14:56:53.259Z,0.80
2023-01-31T15:01:57.565Z,0.98
2023-01-31T15:07:00.390Z,1.00
2023-01-31T15:12:07.867Z,1.10
2023-01-31T15:17:33.070Z,1.00
2023-01-31T15:22:42.434Z,0.80
2023-01-31T15:27:47.539Z,1.00
2023-01-31T15:32:56.584Z,0.80
2023-01-31T15:38:03.943Z,0.98
2023-01-31T15:43:24.608Z,1.15
2023-01-31T15:48:27.458Z,0.80
2023-01-31T15:53:33.163Z,0.90
2023-01-31T15:58:38.913Z,1.02
2023-01-31T16:03:43.724Z,1.00
2023-01-31T16:09:00.752Z,0.77
2023-01-31T16:14:07.799Z,0.95
2023-01-31T16:19:23.814Z,0.90
2023-01-31T16:24:26.905Z,0.80
2023-01-31T16:29:39.935Z,0.80
2023-01-31T16:34:43.569Z,0.82
2023-01-31T16:39:50.668Z,0.98
2023-01-31T16:44:54.845Z,0.70
2023-01-31T16:50:41.864Z,0.80
2023-01-31T16:55:46.631Z,0.60
2023-01-31T17:00:55.830Z,0.90
2023-01-31T17:05:59.033Z,0.80
2023-01-31T17:11:01.861Z,0.90
2023-01-31T17:16:14.488Z,0.80
2023-01-31T17:21:17.530Z,1.08
2023-01-31T17:26:22.465Z,0.90
2023-01-31T17:31:29.390Z,0.90
2023-01-31T17:36:32.368Z,4.03
2023-01-31T17:41:35.608Z,3.35
2023-01-31T17:46:39.828Z,3.78
2023-01-31T17:51:42.839Z,3.85
2023-01-31T17:56:45.721Z,3.22
2023-01-31T18:01:49.998Z,3.03
2023-01-31T18:06:52.892Z,3.05
2023-01-31T18:11:55.746Z,2.70
2023-01-31T18:16:59.891Z,8.38
2023-01-31T18:22:02.756Z,6.47
2023-01-31T18:27:05.765Z,5.10
2023-01-31T18:32:10.708Z,4.47
2023-01-31T18:37:19.929Z,3.75
2023-01-31T18:42:23.188Z,3.90
2023-01-31T18:47:27.437Z,3.65
2023-01-31T18:52:30.844Z,3.28
2023-01-31T18:57:33.705Z,4.95
2023-01-31T19:02:37.939Z,4.20
2023-01-31T19:07:40.877Z,3.70
2023-01-31T19:12:43.812Z,3.20
2023-01-31T19:17:48.001Z,3.35
2023-01-31T19:22:50.859Z,3.13
2023-01-31T19:27:53.699Z,6.53
2023-01-31T19:32:57.922Z,4.90
2023-01-31T19:38:00.852Z,4.10
2023-01-31T19:43:03.666Z,4.07
2023-01-31T19:48:08.131Z,3.97
2023-01-31T19:53:11.204Z,3.65
2023-01-31T19:58:14.009Z,4.00
2023-01-31T20:03:18.173Z,3.40
2023-01-31T20:08:23.128Z,3.40
2023-01-31T20:13:26.609Z,3.17
2023-01-31T20:18:31.617Z,3.42
2023-01-31T20:23:34.944Z,3.15
2023-01-31T20:28:37.833Z,2.78
2023-01-31T20:33:42.436Z,2.83
2023-01-31T20:38:45.537Z,2.60
2023-01-31T20:43:50.359Z,2.55
2023-01-31T20:48:56.846Z,2.60
2023-01-31T20:53:59.655Z,2.90
2023-01-31T20:59:02.534Z,2.70
2023-01-31T21:04:07.911Z,2.42
2023-01-31T21:09:11.086Z,2.88
2023-01-31T21:14:13.933Z,2.30
2023-01-31T21:19:18.212Z,2.35
2023-01-31T21:24:21.058Z,2.35
2023-01-31T21:29:23.891Z,3.13
2023-01-31T21:34:28.151Z,2.22
2023-01-31T21:39:30.992Z,2.30
2023-01-31T21:44:33.823Z,2.28
2023-01-31T21:49:38.287Z,2.22
2023-01-31T21:54:41.156Z,2.40
2023-01-31T21:59:45.487Z,2.08
2023-01-31T22:04:49.697Z,2.03
2023-01-31T22:09:52.515Z,2.28
2023-01-31T22:14:55.325Z,2.15
2023-01-31T22:19:59.576Z,2.22
2023-01-31T22:25:02.457Z,7.93
2023-01-31T22:30:15.775Z,5.90
2023-01-31T22:35:20.790Z,3.50
2023-01-31T22:40:23.901Z,2.63
2023-01-31T22:45:26.920Z,2.75
2023-01-31T22:50:31.252Z,2.50
2023-01-31T22:55:38.664Z,2.42
2023-01-31T23:00:41.545Z,2.63
2023-01-31T23:05:45.930Z,2.30
2023-01-31T23:10:48.753Z,2.50
2023-01-31T23:15:51.622Z,2.10
2023-01-31T23:20:55.989Z,4.28
2023-01-31T23:25:58.800Z,3.13
2023-01-31T23:31:02.872Z,2.65
2023-01-31T23:36:08.074Z,2.13
2023-01-31T23:41:10.958Z,2.05
2023-01-31T23:46:13.874Z,2.13
2023-01-31T23:51:18.041Z,2.42
2023-01-31T23:56:20.854Z,2.10
